Time;durP1;ratioP1;P1;durP2;ratioP2;P2;SDS_P1;SDS_P2;PMS_P1;PMS_P2;Temp;Humidity;BMP_temperature;BMP_pressure;BME280_temperature;BME280_humidity;BME280_pressure;Samples;Min_cycle;Max_cycle;Signal;HPM_P1;HPM_P2
2022/12/23 00:01:55;;;;;;;;;;;21.90;34.30;;;;;;500244;237;1687;-44
2022/12/23 00:03:57;;;;;;;;;;;21.90;34.40;;;;;;500340;237;1880;-43
2022/12/23 00:05:59;;;;;;;;;;;21.90;34.40;;;;;;500325;237;1825;-43
2022/12/23 00:08:01;;;;;;;;;;;21.90;34.40;;;;;;500393;237;2160;-43
2022/12/23 00:10:03;;;;;;;;;;;21.90;34.40;;;;;;500389;237;2141;-43
2022/12/23 00:16:48;;;;;;;;;;;21.90;34.40;;;;;;487305;243;1753;-43
2022/12/23 00:18:49;;;;;;;;;;;21.90;34.40;;;;;;483055;247;1758;-43
2022/12/23 00:20:51;;;;;;;;;;;21.90;34.40;;;;;;481536;247;2117;-43
2022/12/23 00:23:04;;;;;;;;;;;21.90;34.40;;;;;;483047;247;2211;-43
2022/12/23 00:25:06;;;;;;;;;;;21.90;34.40;;;;;;481626;247;2185;-43
2022/12/23 00:27:07;;;;;;;;;;;21.90;34.50;;;;;;483061;246;2181;-43
2022/12/23 00:29:08;;;;;;;;;;;21.90;34.40;;;;;;481575;247;2514;-43
2022/12/23 00:31:10;;;;;;;;;;;21.90;34.40;;;;;;483078;246;1775;-40
2022/12/23 00:33:11;;;;;;;;;;;21.90;34.40;;;;;;481496;247;1901;-43
2022/12/23 00:35:13;;;;;;;;;;;21.90;34.40;;;;;;482944;247;1772;-43
2022/12/23 00:37:14;;;;;;;;;;;21.90;34.40;;;;;;481479;247;1734;-43
2022/12/23 00:43:54;;;;;;;;;;;21.90;34.60;;;;;;482957;246;2054;-43
2022/12/23 00:45:56;;;;;;;;;;;21.90;34.50;;;;;;481472;247;2200;-44
2022/12/23 00:50:16;;;;;;;;;;;21.90;34.50;;;;;;481591;247;1911;-43
2022/12/23 00:52:18;;;;;;;;;;;21.80;34.50;;;;;;483020;246;1935;-43
2022/12/23 00:54:19;;;;;;;;;;;21.90;34.50;;;;;;481608;247;1854;-43
2022/12/23 00:56:21;;;;;;;;;;;21.90;34.50;;;;;;483074;246;2679;-43
2022/12/23 00:58:22;;;;;;;;;;;21.90;34.50;;;;;;481552;247;1961;-44
2022/12/23 01:05:35;;;;;;;;;;;21.90;34.50;;;;;;482981;247;2344;-43
2022/12/23 01:07:04;;;;;;;;;;;21.80;34.50;;;;;;481332;247;2266;-43
2022/12/23 01:09:06;;;;;;;;;;;21.90;34.50;;;;;;483042;246;2124;-41
2022/12/23 01:11:08;;;;;;;;;;;21.90;34.50;;;;;;481543;247;2166;-43
2022/12/23 01:13:09;;;;;;;;;;;21.90;34.50;;;;;;483107;246;1937;-43
2022/12/23 01:15:11;;;;;;;;;;;21.90;34.50;;;;;;481607;247;1945;-44
2022/12/23 01:17:12;;;;;;;;;;;21.90;34.50;;;;;;482939;246;2054;-43
2022/12/23 01:19:13;;;;;;;;;;;21.90;34.50;;;;;;481471;247;2144;-42
2022/12/23 01:21:15;;;;;;;;;;;21.90;34.60;;;;;;483019;246;2263;-40
2022/12/23 01:23:16;;;;;;;;;;;21.80;34.60;;;;;;481542;247;2044;-43
2022/12/23 01:25:18;;;;;;;;;;;21.90;34.60;;;;;;482988;246;2382;-44
2022/12/23 01:27:19;;;;;;;;;;;21.90;34.50;;;;;;481373;247;2193;-41
2022/12/23 01:29:21;;;;;;;;;;;21.80;34.50;;;;;;482934;247;1954;-43
2022/12/23 01:31:22;;;;;;;;;;;21.80;34.50;;;;;;481479;247;3253;-40
2022/12/23 01:33:24;;;;;;;;;;;21.90;34.50;;;;;;482952;246;2551;-43
2022/12/23 01:35:25;;;;;;;;;;;21.90;34.50;;;;;;481329;247;2320;-43
2022/12/23 01:37:27;;;;;;;;;;;21.90;34.50;;;;;;482976;246;2376;-43
2022/12/23 01:39:28;;;;;;;;;;;21.90;34.50;;;;;;481372;247;2683;-42
2022/12/23 01:43:49;;;;;;;;;;;21.80;34.60;;;;;;481542;247;2253;-44
2022/12/23 01:45:50;;;;;;;;;;;21.80;34.60;;;;;;483026;246;2531;-43
2022/12/23 01:47:52;;;;;;;;;;;21.90;34.60;;;;;;481470;247;2190;-43
2022/12/23 01:49:55;;;;;;;;;;;21.90;34.60;;;;;;483015;246;1897;-43
2022/12/23 01:51:56;;;;;;;;;;;21.80;34.60;;;;;;481262;247;2128;-43
2022/12/23 01:53:58;;;;;;;;;;;21.80;34.60;;;;;;482978;246;2485;-40
2022/12/23 01:56:00;;;;;;;;;;;21.80;34.60;;;;;;481483;247;2196;-41
2022/12/23 01:58:02;;;;;;;;;;;21.80;34.60;;;;;;483062;246;2465;-43
2022/12/23 02:04:41;;;;;;;;;;;21.80;34.70;;;;;;482952;246;1850;-43
2022/12/23 02:09:17;;;;;;;;;;;21.80;34.60;;;;;;482979;247;2130;-43
2022/12/23 02:11:19;;;;;;;;;;;21.80;34.60;;;;;;481540;247;1994;-43
2022/12/23 02:13:20;;;;;;;;;;;21.90;34.70;;;;;;483258;246;2268;-43
2022/12/23 02:17:41;;;;;;;;;;;21.80;34.60;;;;;;483090;246;1774;-44
2022/12/23 02:19:42;;;;;;;;;;;21.80;34.70;;;;;;481561;247;1977;-44
2022/12/23 02:21:44;;;;;;;;;;;21.80;34.60;;;;;;482822;246;1661;-44
2022/12/23 02:23:45;;;;;;;;;;;21.80;34.70;;;;;;481533;247;2271;-43
2022/12/23 02:25:47;;;;;;;;;;;21.80;34.80;;;;;;482955;247;2190;-43
2022/12/23 02:27:48;;;;;;;;;;;21.80;34.70;;;;;;481408;247;3474;-43
2022/12/23 02:29:50;;;;;;;;;;;21.80;34.70;;;;;;482943;247;2178;-43
2022/12/23 02:31:51;;;;;;;;;;;21.80;34.80;;;;;;481269;247;1860;-43
2022/12/23 02:33:53;;;;;;;;;;;21.80;34.80;;;;;;482862;247;2130;-43
2022/12/23 02:35:54;;;;;;;;;;;21.80;34.80;;;;;;481317;247;2061;-43
2022/12/23 02:37:55;;;;;;;;;;;21.80;34.80;;;;;;482797;247;2182;-43
2022/12/23 02:39:57;;;;;;;;;;;21.80;34.80;;;;;;481328;247;3497;-41
2022/12/23 02:41:58;;;;;;;;;;;21.80;34.80;;;;;;482783;247;2233;-43
2022/12/23 02:43:59;;;;;;;;;;;21.80;34.80;;;;;;481526;247;2232;-43
2022/12/23 02:46:01;;;;;;;;;;;21.80;34.80;;;;;;482890;246;2038;-43
2022/12/23 02:48:03;;;;;;;;;;;21.80;34.80;;;;;;481339;247;2189;-43
2022/12/23 02:50:04;;;;;;;;;;;21.80;34.80;;;;;;482950;247;2192;-43
2022/12/23 02:52:06;;;;;;;;;;;21.80;34.70;;;;;;481299;247;2099;-43
2022/12/23 02:54:07;;;;;;;;;;;21.80;34.70;;;;;;482936;246;2146;-42
2022/12/23 02:56:08;;;;;;;;;;;21.80;34.70;;;;;;481335;247;2836;-40
2022/12/23 02:58:10;;;;;;;;;;;21.80;34.80;;;;;;482988;246;2542;-40
2022/12/23 03:00:11;;;;;;;;;;;21.80;34.80;;;;;;481505;247;2482;-43
2022/12/23 03:02:13;;;;;;;;;;;21.80;34.80;;;;;;483007;246;2051;-44
2022/12/23 03:04:14;;;;;;;;;;;21.80;34.80;;;;;;481403;247;2674;-40
2022/12/23 03:06:16;;;;;;;;;;;21.80;34.80;;;;;;482998;246;1984;-44
2022/12/23 03:08:17;;;;;;;;;;;21.80;34.80;;;;;;481478;247;2201;-43
2022/12/23 03:10:18;;;;;;;;;;;21.80;34.80;;;;;;483091;246;1897;-43
2022/12/23 03:12:20;;;;;;;;;;;21.80;34.80;;;;;;481608;247;2754;-44
2022/12/23 03:14:21;;;;;;;;;;;21.70;34.80;;;;;;483113;246;2108;-42
2022/12/23 03:16:23;;;;;;;;;;;21.70;34.90;;;;;;481145;247;1901;-43
2022/12/23 03:18:24;;;;;;;;;;;21.70;34.90;;;;;;483054;247;1844;-44
2022/12/23 03:20:25;;;;;;;;;;;21.80;34.90;;;;;;481568;247;1720;-43
2022/12/23 03:22:27;;;;;;;;;;;21.70;34.80;;;;;;482923;247;2351;-43
2022/12/23 03:24:29;;;;;;;;;;;21.70;34.90;;;;;;481484;247;2395;-43
2022/12/23 03:26:30;;;;;;;;;;;21.70;34.90;;;;;;483037;246;2516;-40
2022/12/23 03:28:31;;;;;;;;;;;21.80;34.80;;;;;;481311;247;2189;-43
2022/12/23 03:30:34;;;;;;;;;;;21.80;34.80;;;;;;482942;246;3239;-44
2022/12/23 03:32:35;;;;;;;;;;;21.80;34.80;;;;;;481437;247;1957;-43
2022/12/23 03:34:37;;;;;;;;;;;21.80;34.80;;;;;;482828;246;1893;-44
2022/12/23 03:36:38;;;;;;;;;;;21.80;34.80;;;;;;481343;247;3869;-43
2022/12/23 03:38:39;;;;;;;;;;;21.80;34.90;;;;;;483003;246;2933;-42
2022/12/23 03:40:41;;;;;;;;;;;21.80;34.80;;;;;;481581;247;2173;-43
2022/12/23 03:42:42;;;;;;;;;;;21.80;34.80;;;;;;483103;246;2025;-41
2022/12/23 03:44:43;;;;;;;;;;;21.80;34.80;;;;;;481665;247;1712;-40
2022/12/23 03:46:45;;;;;;;;;;;21.80;34.80;;;;;;483417;246;1953;-43
2022/12/23 03:48:46;;;;;;;;;;;21.80;34.80;;;;;;481742;247;3649;-44
2022/12/23 03:50:48;;;;;;;;;;;21.80;34.80;;;;;;483478;246;2181;-40
2022/12/23 03:52:49;;;;;;;;;;;21.80;34.80;;;;;;481734;247;1925;-43
2022/12/23 03:54:51;;;;;;;;;;;21.80;34.80;;;;;;483287;247;2346;-43
2022/12/23 03:56:53;;;;;;;;;;;21.80;34.80;;;;;;481855;247;1995;-42
2022/12/23 03:58:54;;;;;;;;;;;21.80;34.80;;;;;;483162;247;2024;-43
2022/12/23 04:00:55;;;;;;;;;;;21.80;34.90;;;;;;481722;247;2404;-40
2022/12/23 04:02:57;;;;;;;;;;;21.80;34.90;;;;;;482856;246;2224;-43
2022/12/23 04:04:58;;;;;;;;;;;21.80;34.90;;;;;;481587;247;1991;-42
2022/12/23 04:06:59;;;;;;;;;;;21.70;34.90;;;;;;483086;247;2043;-44
2022/12/23 04:09:01;;;;;;;;;;;21.70;34.90;;;;;;481492;247;2161;-44
2022/12/23 04:11:02;;;;;;;;;;;21.70;34.80;;;;;;483043;247;1934;-43
2022/12/23 04:13:03;;;;;;;;;;;21.80;34.80;;;;;;481609;247;1851;-43
2022/12/23 04:15:05;;;;;;;;;;;21.90;34.80;;;;;;483047;247;1984;-43
2022/12/23 04:17:06;;;;;;;;;;;22.00;34.50;;;;;;481403;247;1649;-44
2022/12/23 04:19:08;;;;;;;;;;;22.20;34.30;;;;;;483095;246;1790;-43
2022/12/23 04:21:09;;;;;;;;;;;22.40;34.00;;;;;;481607;247;1927;-44
2022/12/23 04:23:11;;;;;;;;;;;22.50;33.90;;;;;;482539;246;2059;-44
2022/12/23 04:25:12;;;;;;;;;;;22.40;33.90;;;;;;481706;247;2810;-43
2022/12/23 04:27:14;;;;;;;;;;;22.30;34.10;;;;;;482934;247;1851;-43
2022/12/23 04:29:15;;;;;;;;;;;22.10;34.20;;;;;;481798;247;2193;-42
2022/12/23 04:31:17;;;;;;;;;;;22.10;34.40;;;;;;482959;246;1797;-44
2022/12/23 04:33:18;;;;;;;;;;;22.00;34.40;;;;;;481660;247;1971;-43
2022/12/23 04:35:20;;;;;;;;;;;22.00;34.50;;;;;;483295;246;2248;-43
2022/12/23 04:37:21;;;;;;;;;;;22.10;34.50;;;;;;481461;247;1880;-43
2022/12/23 04:39:22;;;;;;;;;;;22.20;34.20;;;;;;483239;247;1981;-43
2022/12/23 04:41:24;;;;;;;;;;;22.40;34.00;;;;;;481941;247;2023;-43
2022/12/23 04:43:25;;;;;;;;;;;22.50;33.90;;;;;;483183;246;2060;-43
2022/12/23 04:45:26;;;;;;;;;;;22.40;33.90;;;;;;481656;247;1391;-43
2022/12/23 04:47:28;;;;;;;;;;;22.30;34.10;;;;;;483291;246;1752;-44
2022/12/23 04:49:29;;;;;;;;;;;22.10;34.20;;;;;;481660;247;2134;-43
2022/12/23 04:51:30;;;;;;;;;;;22.00;34.40;;;;;;483114;246;2250;-43
2022/12/23 04:53:32;;;;;;;;;;;22.00;34.50;;;;;;481716;247;2140;-40
2022/12/23 04:55:33;;;;;;;;;;;22.00;34.50;;;;;;483208;246;2034;-43
2022/12/23 04:57:35;;;;;;;;;;;22.00;34.60;;;;;;481715;247;2587;-43
2022/12/23 04:59:36;;;;;;;;;;;21.90;34.70;;;;;;483012;246;1914;-44
2022/12/23 05:01:38;;;;;;;;;;;21.90;34.70;;;;;;481689;247;2015;-43
2022/12/23 05:03:40;;;;;;;;;;;21.80;34.70;;;;;;483166;247;2090;-43
2022/12/23 05:05:41;;;;;;;;;;;21.80;34.80;;;;;;481603;247;1936;-41
2022/12/23 05:07:43;;;;;;;;;;;21.80;34.90;;;;;;483332;246;2000;-43
2022/12/23 05:09:45;;;;;;;;;;;21.80;34.90;;;;;;481642;247;2265;-42
2022/12/23 05:11:46;;;;;;;;;;;21.70;34.90;;;;;;483412;246;2360;-43
2022/12/23 05:13:49;;;;;;;;;;;21.70;35.00;;;;;;481897;247;1884;-41
2022/12/23 05:15:53;;;;;;;;;;;21.70;35.00;;;;;;483155;247;2514;-41
2022/12/23 05:17:55;;;;;;;;;;;21.70;35.00;;;;;;481717;247;1958;-44
2022/12/23 05:19:56;;;;;;;;;;;21.70;35.00;;;;;;483084;247;1991;-41
2022/12/23 05:21:57;;;;;;;;;;;21.70;35.00;;;;;;481403;247;2052;-42
2022/12/23 05:23:59;;;;;;;;;;;21.70;35.10;;;;;;483065;246;2155;-40
2022/12/23 05:26:01;;;;;;;;;;;21.60;35.10;;;;;;481550;247;2026;-41
2022/12/23 05:28:02;;;;;;;;;;;21.70;35.10;;;;;;483101;246;2023;-40
2022/12/23 05:30:04;;;;;;;;;;;21.70;35.10;;;;;;481718;247;2447;-43
2022/12/23 05:32:05;;;;;;;;;;;21.70;35.10;;;;;;483042;246;2257;-40
2022/12/23 05:34:07;;;;;;;;;;;21.70;35.10;;;;;;481666;247;2992;-40
2022/12/23 05:36:08;;;;;;;;;;;21.70;35.10;;;;;;483125;246;2060;-43
2022/12/23 05:38:10;;;;;;;;;;;21.60;35.10;;;;;;481608;247;2668;-42
2022/12/23 05:40:11;;;;;;;;;;;21.60;35.20;;;;;;483112;246;2482;-41
2022/12/23 05:42:18;;;;;;;;;;;21.60;35.20;;;;;;481445;247;1984;-43
2022/12/23 05:44:15;;;;;;;;;;;21.70;35.30;;;;;;483048;247;2656;-43
2022/12/23 05:46:17;;;;;;;;;;;21.50;35.30;;;;;;481427;247;2228;-43
2022/12/23 05:48:18;;;;;;;;;;;21.60;35.40;;;;;;483081;246;1904;-43
2022/12/23 05:50:20;;;;;;;;;;;21.60;35.30;;;;;;481676;247;2197;-43
2022/12/23 05:52:21;;;;;;;;;;;21.60;35.30;;;;;;483023;246;2480;-43
2022/12/23 05:54:23;;;;;;;;;;;21.60;35.30;;;;;;481715;247;2209;-44
2022/12/23 05:56:25;;;;;;;;;;;21.60;35.30;;;;;;483163;247;2550;-43
2022/12/23 05:58:27;;;;;;;;;;;21.60;35.30;;;;;;481535;247;1892;-43
2022/12/23 06:00:28;;;;;;;;;;;21.60;35.20;;;;;;483042;247;2096;-43
2022/12/23 06:02:30;;;;;;;;;;;21.60;35.20;;;;;;481597;247;2293;-43
2022/12/23 06:04:31;;;;;;;;;;;21.60;35.30;;;;;;483199;247;2612;-44
2022/12/23 06:06:33;;;;;;;;;;;21.60;35.30;;;;;;481631;247;2051;-40
2022/12/23 06:08:35;;;;;;;;;;;21.50;35.30;;;;;;483235;247;2265;-43
2022/12/23 06:10:37;;;;;;;;;;;21.50;35.30;;;;;;481761;247;2185;-41
2022/12/23 06:12:38;;;;;;;;;;;21.50;35.40;;;;;;483229;246;1610;-43
2022/12/23 06:14:40;;;;;;;;;;;21.50;35.40;;;;;;480970;247;2199;-40
2022/12/23 06:16:41;;;;;;;;;;;21.50;35.40;;;;;;482943;247;1873;-43
2022/12/23 06:18:43;;;;;;;;;;;21.50;35.30;;;;;;481614;247;2046;-43
2022/12/23 06:20:44;;;;;;;;;;;21.60;35.40;;;;;;483175;246;1828;-43
2022/12/23 06:22:46;;;;;;;;;;;21.60;35.30;;;;;;481637;247;2049;-41
2022/12/23 06:24:48;;;;;;;;;;;21.60;35.30;;;;;;483165;246;1889;-40
2022/12/23 06:26:49;;;;;;;;;;;21.60;35.30;;;;;;481479;247;1914;-43
2022/12/23 06:28:50;;;;;;;;;;;21.60;35.30;;;;;;483055;247;2188;-43
2022/12/23 06:30:52;;;;;;;;;;;21.60;35.30;;;;;;481421;247;1836;-43
2022/12/23 06:32:53;;;;;;;;;;;21.60;35.20;;;;;;482956;246;2238;-43
2022/12/23 06:34:55;;;;;;;;;;;21.70;35.10;;;;;;481615;247;1842;-43
2022/12/23 06:36:58;;;;;;;;;;;21.70;35.20;;;;;;483045;246;1898;-41
2022/12/23 06:38:59;;;;;;;;;;;21.70;35.20;;;;;;481737;247;2155;-43
2022/12/23 06:41:01;;;;;;;;;;;21.70;35.20;;;;;;483152;247;2068;-43
2022/12/23 06:43:03;;;;;;;;;;;21.70;35.20;;;;;;482016;247;3061;-43
2022/12/23 06:45:04;;;;;;;;;;;21.70;35.10;;;;;;483194;247;1890;-42
2022/12/23 06:47:05;;;;;;;;;;;21.70;35.00;;;;;;481806;247;2163;-40
2022/12/23 06:49:07;;;;;;;;;;;21.70;35.10;;;;;;483269;246;2191;-43
2022/12/23 06:51:11;;;;;;;;;;;21.70;35.10;;;;;;481775;247;2126;-43
2022/12/23 06:53:10;;;;;;;;;;;21.70;35.10;;;;;;483172;247;2034;-40
2022/12/23 06:55:12;;;;;;;;;;;21.70;35.20;;;;;;481686;247;1921;-41
2022/12/23 06:57:14;;;;;;;;;;;21.70;35.20;;;;;;483173;246;1944;-43
2022/12/23 06:59:15;;;;;;;;;;;21.70;35.20;;;;;;481767;247;2063;-43
2022/12/23 07:01:16;;;;;;;;;;;21.70;35.30;;;;;;483004;246;2025;-43
2022/12/23 07:03:18;;;;;;;;;;;21.70;35.20;;;;;;481486;247;2213;-43
2022/12/23 07:05:19;;;;;;;;;;;21.70;35.20;;;;;;482950;247;1878;-43
2022/12/23 07:07:21;;;;;;;;;;;21.70;35.20;;;;;;481248;247;2450;-44
2022/12/23 07:09:23;;;;;;;;;;;21.70;35.20;;;;;;482948;246;2203;-43
2022/12/23 07:11:24;;;;;;;;;;;21.80;35.20;;;;;;480977;247;3284;-40
2022/12/23 07:13:25;;;;;;;;;;;21.80;35.20;;;;;;483104;246;2234;-43
2022/12/23 07:15:27;;;;;;;;;;;21.80;35.20;;;;;;481522;247;2288;-43
2022/12/23 07:17:28;;;;;;;;;;;21.80;35.20;;;;;;482740;246;1862;-41
2022/12/23 07:19:29;;;;;;;;;;;21.90;35.20;;;;;;481477;247;2517;-40
2022/12/23 07:21:31;;;;;;;;;;;21.80;35.30;;;;;;482944;247;1855;-43
2022/12/23 07:23:33;;;;;;;;;;;21.90;35.40;;;;;;481374;247;2568;-43
2022/12/23 07:25:35;;;;;;;;;;;21.90;35.30;;;;;;482889;246;2383;-40
2022/12/23 07:27:37;;;;;;;;;;;21.90;35.30;;;;;;481328;247;2096;-41
2022/12/23 07:29:38;;;;;;;;;;;21.90;35.30;;;;;;482771;246;2224;-43
2022/12/23 07:31:39;;;;;;;;;;;21.90;35.40;;;;;;481155;247;2755;-43
2022/12/23 07:33:41;;;;;;;;;;;21.90;35.40;;;;;;482659;247;2021;-42
2022/12/23 07:35:43;;;;;;;;;;;21.90;35.40;;;;;;481081;247;4442;-43
2022/12/23 07:37:45;;;;;;;;;;;21.90;35.40;;;;;;482794;246;2262;-43
2022/12/23 07:39:46;;;;;;;;;;;21.90;35.50;;;;;;481570;247;2258;-41
2022/12/23 07:41:47;;;;;;;;;;;21.90;35.50;;;;;;482949;247;2366;-42
2022/12/23 07:43:49;;;;;;;;;;;21.90;35.50;;;;;;481483;247;2923;-43
2022/12/23 07:45:51;;;;;;;;;;;21.90;35.50;;;;;;482956;247;2019;-43
2022/12/23 07:47:53;;;;;;;;;;;21.90;35.60;;;;;;481383;247;2615;-43
2022/12/23 07:49:55;;;;;;;;;;;22.00;35.60;;;;;;482892;247;2624;-42
2022/12/23 07:51:56;;;;;;;;;;;21.90;35.50;;;;;;481470;247;3229;-43
2022/12/23 07:53:58;;;;;;;;;;;21.90;35.60;;;;;;482889;246;2159;-43
2022/12/23 07:55:59;;;;;;;;;;;22.00;35.60;;;;;;481814;247;1983;-41
2022/12/23 07:58:01;;;;;;;;;;;22.00;35.60;;;;;;482925;247;2631;-43
2022/12/23 08:00:04;;;;;;;;;;;22.00;35.60;;;;;;481443;247;2370;-40
2022/12/23 08:02:05;;;;;;;;;;;22.00;35.50;;;;;;482808;246;1725;-42
2022/12/23 08:04:06;;;;;;;;;;;22.10;35.50;;;;;;481425;247;2295;-40
2022/12/23 08:06:08;;;;;;;;;;;22.10;35.50;;;;;;483244;246;2163;-43
2022/12/23 08:08:09;;;;;;;;;;;22.10;35.60;;;;;;481905;247;2322;-43
2022/12/23 08:10:11;;;;;;;;;;;22.10;35.60;;;;;;483270;246;2188;-42
2022/12/23 08:12:13;;;;;;;;;;;22.10;35.60;;;;;;481790;247;2722;-40
2022/12/23 08:14:15;;;;;;;;;;;22.10;35.60;;;;;;483164;246;1971;-42
2022/12/23 08:16:16;;;;;;;;;;;22.10;35.60;;;;;;481957;247;1909;-43
2022/12/23 08:18:18;;;;;;;;;;;22.10;35.60;;;;;;483193;247;2105;-44
2022/12/23 08:20:19;;;;;;;;;;;22.20;35.60;;;;;;481542;247;2142;-43
2022/12/23 08:22:21;;;;;;;;;;;22.20;35.50;;;;;;483042;246;1772;-43
2022/12/23 08:24:22;;;;;;;;;;;22.20;35.60;;;;;;481736;247;2035;-39
2022/12/23 08:26:23;;;;;;;;;;;22.20;35.60;;;;;;482942;246;2185;-43
2022/12/23 08:28:25;;;;;;;;;;;22.20;35.60;;;;;;481707;247;2177;-41
2022/12/23 08:30:26;;;;;;;;;;;22.20;35.70;;;;;;482910;247;2183;-40
2022/12/23 08:32:28;;;;;;;;;;;22.20;35.60;;;;;;480974;247;3360;-43
2022/12/23 08:34:29;;;;;;;;;;;22.20;35.70;;;;;;483049;247;3187;-40
2022/12/23 08:36:31;;;;;;;;;;;22.20;35.60;;;;;;481460;247;2214;-43
2022/12/23 08:38:32;;;;;;;;;;;22.20;35.70;;;;;;483076;246;2333;-40
2022/12/23 08:40:34;;;;;;;;;;;22.30;35.70;;;;;;481795;247;1843;-41
2022/12/23 08:42:35;;;;;;;;;;;22.30;35.70;;;;;;483051;247;1835;-43
2022/12/23 08:44:37;;;;;;;;;;;22.30;35.80;;;;;;481567;247;2252;-41
2022/12/23 08:46:38;;;;;;;;;;;22.30;35.70;;;;;;483034;247;2003;-43
2022/12/23 08:48:40;;;;;;;;;;;22.30;35.90;;;;;;481717;247;1697;-40
2022/12/23 08:50:41;;;;;;;;;;;22.30;35.80;;;;;;483199;246;2188;-43
2022/12/23 08:52:44;;;;;;;;;;;22.30;35.80;;;;;;481550;247;2005;-40
2022/12/23 08:54:46;;;;;;;;;;;22.30;35.80;;;;;;483138;246;2367;-43
2022/12/23 08:56:48;;;;;;;;;;;22.30;35.90;;;;;;481705;247;1949;-40
2022/12/23 08:58:50;;;;;;;;;;;22.30;35.80;;;;;;483018;247;2085;-43
2022/12/23 09:00:51;;;;;;;;;;;22.30;35.80;;;;;;481413;247;2086;-40
2022/12/23 09:02:53;;;;;;;;;;;22.30;35.90;;;;;;482922;247;2402;-44
2022/12/23 09:04:54;;;;;;;;;;;22.40;35.90;;;;;;481364;247;1831;-44
2022/12/23 09:06:56;;;;;;;;;;;22.30;35.90;;;;;;482934;246;2098;-43
2022/12/23 09:08:57;;;;;;;;;;;22.40;35.90;;;;;;481467;247;3024;-43
2022/12/23 09:10:59;;;;;;;;;;;22.40;36.00;;;;;;482868;247;2386;-43
2022/12/23 09:13:00;;;;;;;;;;;22.40;35.90;;;;;;481307;247;2740;-43
2022/12/23 09:15:02;;;;;;;;;;;22.40;36.00;;;;;;482983;246;2378;-43
2022/12/23 09:17:03;;;;;;;;;;;22.40;36.00;;;;;;481443;247;2271;-42
2022/12/23 09:19:04;;;;;;;;;;;22.40;36.10;;;;;;482989;246;1700;-43
2022/12/23 09:21:06;;;;;;;;;;;22.40;36.10;;;;;;481476;247;1961;-44
2022/12/23 09:23:07;;;;;;;;;;;22.40;36.10;;;;;;482981;247;2537;-44
2022/12/23 09:25:09;;;;;;;;;;;22.50;36.00;;;;;;481488;247;2478;-42
2022/12/23 09:27:11;;;;;;;;;;;22.40;36.00;;;;;;482967;247;2087;-44
2022/12/23 09:29:12;;;;;;;;;;;22.40;36.00;;;;;;481607;247;1956;-43
2022/12/23 09:31:13;;;;;;;;;;;22.50;36.10;;;;;;483184;246;2156;-43
2022/12/23 09:33:15;;;;;;;;;;;22.50;36.10;;;;;;481562;247;2971;-44
2022/12/23 09:35:16;;;;;;;;;;;22.50;36.10;;;;;;483036;247;2368;-44
2022/12/23 09:37:19;;;;;;;;;;;22.50;36.10;;;;;;481540;247;2594;-40
2022/12/23 09:39:19;;;;;;;;;;;22.50;36.10;;;;;;483152;246;2361;-42
2022/12/23 09:41:21;;;;;;;;;;;22.50;36.10;;;;;;481669;247;2319;-43
2022/12/23 09:43:22;;;;;;;;;;;22.50;36.00;;;;;;481688;246;2688;-44
2022/12/23 09:45:24;;;;;;;;;;;22.50;36.20;;;;;;481656;247;1919;-43
2022/12/23 09:47:26;;;;;;;;;;;22.40;36.20;;;;;;483274;247;1738;-40
2022/12/23 09:49:27;;;;;;;;;;;22.40;36.30;;;;;;481711;247;2269;-44
2022/12/23 09:51:29;;;;;;;;;;;22.40;36.40;;;;;;483326;246;2162;-43
2022/12/23 09:53:31;;;;;;;;;;;22.30;36.50;;;;;;481678;247;2262;-41
2022/12/23 09:55:32;;;;;;;;;;;22.30;36.60;;;;;;483156;247;1896;-40
2022/12/23 09:57:35;;;;;;;;;;;22.30;36.70;;;;;;481623;247;3748;-44
2022/12/23 09:59:35;;;;;;;;;;;22.20;36.70;;;;;;483030;247;2355;-43
2022/12/23 10:01:37;;;;;;;;;;;22.20;36.80;;;;;;481413;247;1983;-44
2022/12/23 10:03:38;;;;;;;;;;;22.20;36.90;;;;;;482698;246;2311;-43
2022/12/23 10:05:40;;;;;;;;;;;22.20;37.00;;;;;;481281;247;2463;-42
2022/12/23 10:07:41;;;;;;;;;;;22.10;36.90;;;;;;482709;246;1850;-44
2022/12/23 10:09:42;;;;;;;;;;;22.10;37.10;;;;;;481305;247;1846;-42
2022/12/23 10:11:45;;;;;;;;;;;22.10;37.10;;;;;;482837;246;2207;-44
2022/12/23 10:13:46;;;;;;;;;;;22.10;37.20;;;;;;481668;247;2593;-42
2022/12/23 10:15:48;;;;;;;;;;;22.00;37.20;;;;;;482778;246;2023;-43
2022/12/23 10:17:49;;;;;;;;;;;22.00;37.30;;;;;;481217;247;2024;-43
2022/12/23 10:19:51;;;;;;;;;;;22.00;37.30;;;;;;482843;246;2498;-43
2022/12/23 10:21:52;;;;;;;;;;;22.00;37.30;;;;;;481154;247;3271;-43
2022/12/23 10:23:54;;;;;;;;;;;22.00;37.30;;;;;;482939;246;2247;-43
2022/12/23 10:25:57;;;;;;;;;;;22.00;37.30;;;;;;481505;247;1809;-42
2022/12/23 10:27:58;;;;;;;;;;;22.00;37.30;;;;;;482946;247;2838;-44
2022/12/23 10:30:01;;;;;;;;;;;22.00;37.50;;;;;;481504;247;2067;-44
2022/12/23 10:32:03;;;;;;;;;;;22.00;37.50;;;;;;482984;246;2194;-43
2022/12/23 10:34:04;;;;;;;;;;;22.00;37.50;;;;;;481579;247;1870;-43
2022/12/23 10:36:06;;;;;;;;;;;22.00;37.40;;;;;;483082;247;1818;-44
2022/12/23 10:38:07;;;;;;;;;;;22.00;37.50;;;;;;481532;247;2066;-43
2022/12/23 10:40:09;;;;;;;;;;;22.00;37.60;;;;;;483043;247;3678;-43
2022/12/23 10:42:10;;;;;;;;;;;22.00;37.60;;;;;;481702;247;2199;-38
2022/12/23 10:44:11;;;;;;;;;;;21.90;37.60;;;;;;482819;246;1787;-44
2022/12/23 10:46:13;;;;;;;;;;;21.90;37.70;;;;;;481636;247;2567;-40
2022/12/23 10:48:15;;;;;;;;;;;21.90;37.80;;;;;;483084;246;1971;-43
2022/12/23 10:50:18;;;;;;;;;;;21.90;37.80;;;;;;481745;247;2197;-44
2022/12/23 10:52:19;;;;;;;;;;;21.90;37.80;;;;;;483166;246;2215;-44
2022/12/23 10:54:22;;;;;;;;;;;21.90;37.80;;;;;;481657;247;2047;-41
2022/12/23 10:56:23;;;;;;;;;;;21.90;37.80;;;;;;483071;246;1997;-43
2022/12/23 10:58:25;;;;;;;;;;;21.90;37.80;;;;;;481658;247;2240;-41
2022/12/23 11:00:27;;;;;;;;;;;21.90;37.90;;;;;;483082;246;2276;-43
2022/12/23 11:02:29;;;;;;;;;;;21.80;37.90;;;;;;481398;247;2130;-43
2022/12/23 11:04:31;;;;;;;;;;;21.80;37.90;;;;;;483000;246;2436;-43
2022/12/23 11:06:35;;;;;;;;;;;21.80;38.00;;;;;;481325;247;2064;-43
2022/12/23 11:08:37;;;;;;;;;;;21.80;38.00;;;;;;483060;247;1616;-40
2022/12/23 11:10:40;;;;;;;;;;;21.80;38.00;;;;;;481545;247;2146;-41
2022/12/23 11:12:42;;;;;;;;;;;21.80;38.00;;;;;;482956;246;2295;-41
2022/12/23 11:14:44;;;;;;;;;;;21.80;38.10;;;;;;481516;247;1880;-43
2022/12/23 11:16:46;;;;;;;;;;;21.80;38.10;;;;;;482885;247;2725;-43
2022/12/23 11:18:48;;;;;;;;;;;21.90;38.10;;;;;;481669;247;2495;-40
2022/12/23 11:20:50;;;;;;;;;;;21.80;38.00;;;;;;483074;246;2437;-44
2022/12/23 11:22:51;;;;;;;;;;;21.80;38.10;;;;;;481584;247;1987;-43
2022/12/23 11:24:53;;;;;;;;;;;21.80;38.10;;;;;;483156;247;2746;-43
2022/12/23 11:26:54;;;;;;;;;;;21.80;38.10;;;;;;481578;247;1754;-43
2022/12/23 11:28:57;;;;;;;;;;;21.80;38.20;;;;;;483047;246;2111;-42
2022/12/23 11:30:59;;;;;;;;;;;21.80;38.20;;;;;;481581;247;2153;-43
2022/12/23 11:33:00;;;;;;;;;;;21.80;38.20;;;;;;483007;247;1965;-40
2022/12/23 11:35:02;;;;;;;;;;;21.80;38.20;;;;;;481542;247;1752;-43
2022/12/23 11:37:03;;;;;;;;;;;21.80;38.10;;;;;;482950;246;2115;-43
2022/12/23 11:39:07;;;;;;;;;;;21.90;38.10;;;;;;481829;247;1873;-42
2022/12/23 11:41:08;;;;;;;;;;;21.90;38.00;;;;;;483096;247;1766;-43
2022/12/23 11:43:10;;;;;;;;;;;21.90;38.00;;;;;;481759;247;1957;-43
2022/12/23 11:45:11;;;;;;;;;;;22.00;38.10;;;;;;483276;246;1934;-43
2022/12/23 11:47:15;;;;;;;;;;;22.10;38.00;;;;;;481699;247;1890;-43
2022/12/23 11:49:17;;;;;;;;;;;22.10;37.80;;;;;;483301;247;1989;-43
2022/12/23 11:51:18;;;;;;;;;;;22.10;37.90;;;;;;481709;247;2162;-41
2022/12/23 11:53:19;;;;;;;;;;;22.10;37.80;;;;;;483260;247;2101;-42
2022/12/23 11:55:21;;;;;;;;;;;22.10;37.80;;;;;;481683;247;2050;-43
2022/12/23 11:57:23;;;;;;;;;;;22.20;37.80;;;;;;483014;247;2068;-42
2022/12/23 11:59:24;;;;;;;;;;;22.20;37.70;;;;;;481785;247;2030;-43
2022/12/23 12:01:27;;;;;;;;;;;22.30;37.60;;;;;;483129;247;1942;-43
2022/12/23 12:03:28;;;;;;;;;;;22.30;37.60;;;;;;481713;247;1929;-40
2022/12/23 12:05:30;;;;;;;;;;;22.30;37.70;;;;;;483400;246;2832;-40
2022/12/23 12:07:32;;;;;;;;;;;22.30;37.60;;;;;;481708;247;1958;-40
2022/12/23 12:09:33;;;;;;;;;;;22.30;37.60;;;;;;483280;246;2317;-43
2022/12/23 12:11:35;;;;;;;;;;;22.30;37.50;;;;;;481728;247;2174;-42
2022/12/23 12:13:36;;;;;;;;;;;22.40;37.60;;;;;;483209;246;2163;-44
2022/12/23 12:15:38;;;;;;;;;;;22.40;37.60;;;;;;481688;247;1981;-42
2022/12/23 12:17:40;;;;;;;;;;;22.40;37.50;;;;;;482978;247;2083;-43
2022/12/23 12:19:42;;;;;;;;;;;22.40;37.50;;;;;;481766;247;1878;-44
2022/12/23 12:21:46;;;;;;;;;;;22.50;37.50;;;;;;482895;247;2160;-41
2022/12/23 12:23:48;;;;;;;;;;;22.50;37.50;;;;;;481597;247;2042;-43
2022/12/23 12:25:50;;;;;;;;;;;22.50;37.50;;;;;;483092;246;2574;-42
2022/12/23 12:27:51;;;;;;;;;;;22.50;37.40;;;;;;481503;247;2543;-44